Time;durP1;ratioP1;P1;durP2;ratioP2;P2;SDS_P1;SDS_P2;PMS_P1;PMS_P2;Temp;Humidity;BMP_temperature;BMP_pressure;BME280_temperature;BME280_humidity;BME280_pressure;Samples;Min_cycle;Max_cycle;Signal;HPM_P1;HPM_P2
2023/08/29 00:01:58;;;;;;;0.13;0.13;;;;;;;13.83;84.56;96823.06;5086916;28;20123;-68
2023/08/29 00:04:26;;;;;;;0.22;0.22;;;;;;;13.77;84.95;96822.16;5073236;28;20432;-67
2023/08/29 00:06:55;;;;;;;0.15;0.15;;;;;;;13.83;84.36;96820.41;5085015;28;20052;-67
2023/08/29 00:09:22;;;;;;;0.20;0.20;;;;;;;13.75;84.99;96823.44;5079384;28;20044;-67
2023/08/29 00:11:50;;;;;;;0.17;0.17;;;;;;;13.80;85.87;96823.56;5073117;28;20062;-67
2023/08/29 00:14:18;;;;;;;0.30;0.30;;;;;;;13.70;84.74;96829.53;5079624;28;20032;-67
2023/08/29 00:16:45;;;;;;;0.13;0.13;;;;;;;13.73;84.70;96820.16;5080575;28;20055;-67
2023/08/29 00:19:15;;;;;;;0.20;0.20;;;;;;;13.74;84.91;96822.63;5064906;28;20200;-67
2023/08/29 00:21:43;;;;;;;0.32;0.32;;;;;;;13.77;84.59;96824.03;5066729;28;20036;-67
2023/08/29 00:24:12;;;;;;;0.13;0.13;;;;;;;13.80;84.97;96820.88;5077230;28;20037;-67
2023/08/29 00:26:41;;;;;;;0.10;0.10;;;;;;;13.81;84.74;96822.50;5076627;28;20047;-67
2023/08/29 00:29:08;;;;;;;0.13;0.13;;;;;;;13.76;84.89;96815.16;5066158;28;20041;-67
2023/08/29 00:31:38;;;;;;;0.20;0.20;;;;;;;13.81;84.43;96801.03;5080372;28;20033;-67
2023/08/29 00:34:06;;;;;;;0.10;0.10;;;;;;;13.81;84.52;96798.34;5062292;28;20047;-67
2023/08/29 00:36:33;;;;;;;0.20;0.20;;;;;;;13.67;84.91;96787.06;5064126;28;20074;-67
2023/08/29 00:39:03;;;;;;;0.20;0.20;;;;;;;13.56;85.45;96783.34;5082709;28;20431;-68
2023/08/29 00:41:32;;;;;;;0.10;0.10;;;;;;;13.57;85.61;96784.16;5062234;28;20076;-67
2023/08/29 00:44:00;;;;;;;0.22;0.22;;;;;;;13.59;86.17;96779.38;5078129;28;20123;-69
2023/08/29 00:46:28;;;;;;;0.20;0.20;;;;;;;13.66;85.79;96787.28;5056484;28;20132;-67
2023/08/29 00:48:56;;;;;;;0.28;0.28;;;;;;;13.62;85.98;96786.13;5046439;28;20049;-68
2023/08/29 00:51:24;;;;;;;0.30;0.30;;;;;;;13.56;86.38;96794.06;5064671;28;20036;-69
2023/08/29 00:53:52;;;;;;;0.13;0.13;;;;;;;13.59;86.24;96798.97;5072183;28;20056;-68
2023/08/29 00:56:19;;;;;;;0.20;0.20;;;;;;;13.65;86.34;96802.56;5068301;28;20048;-67
2023/08/29 00:58:48;;;;;;;0.10;0.10;;;;;;;13.60;86.50;96803.25;5081315;28;20040;-68
2023/08/29 01:01:17;;;;;;;0.10;0.10;;;;;;;13.62;86.28;96796.84;5086004;28;20483;-69
2023/08/29 01:03:45;;;;;;;0.20;0.20;;;;;;;13.60;86.17;96795.22;5068006;28;20085;-69
2023/08/29 01:06:15;;;;;;;0.35;0.35;;;;;;;13.67;87.14;96796.97;5083084;28;20059;-69
2023/08/29 01:08:43;;;;;;;0.22;0.22;;;;;;;13.66;86.47;96806.88;5070336;28;20054;-69
2023/08/29 01:11:14;;;;;;;0.22;0.22;;;;;;;13.75;86.58;96796.63;5079034;28;20051;-69
2023/08/29 01:13:46;;;;;;;0.20;0.20;;;;;;;13.81;86.37;96788.44;5068711;28;20048;-69
2023/08/29 01:16:18;;;;;;;0.13;0.13;;;;;;;13.84;86.60;96792.53;5074187;28;20037;-69
2023/08/29 01:18:47;;;;;;;0.22;0.22;;;;;;;13.86;86.24;96790.44;5064604;28;20159;-67
2023/08/29 01:21:26;;;;;;;0.22;0.22;;;;;;;13.86;85.86;96787.75;5080167;28;20053;-69
2023/08/29 01:23:59;;;;;;;0.20;0.20;;;;;;;13.88;85.83;96785.66;5062308;28;20123;-69
2023/08/29 01:26:28;;;;;;;0.05;0.05;;;;;;;13.88;85.88;96777.59;5081674;28;20058;-70
2023/08/29 01:28:59;;;;;;;0.30;0.30;;;;;;;13.80;86.22;96778.78;5082539;28;20047;-68
2023/08/29 01:31:29;;;;;;;0.10;0.10;;;;;;;13.80;85.62;96780.66;5080739;28;20472;-69
2023/08/29 01:33:57;;;;;;;0.10;0.10;;;;;;;13.76;86.29;96779.47;5069018;28;20037;-68
2023/08/29 01:36:27;;;;;;;0.10;0.10;;;;;;;13.75;86.16;96778.66;5071121;28;20077;-69
2023/08/29 01:38:55;;;;;;;0.30;0.30;;;;;;;13.74;85.97;96770.84;5070586;28;20040;-70
2023/08/29 01:41:23;;;;;;;0.10;0.10;;;;;;;13.70;86.28;96770.53;5076696;28;20036;-69
2023/08/29 01:43:52;;;;;;;0.20;0.20;;;;;;;13.64;86.27;96767.94;5079754;28;20036;-68
2023/08/29 01:46:20;;;;;;;0.20;0.20;;;;;;;13.65;86.48;96769.56;5070241;28;20052;-69
2023/08/29 01:48:48;;;;;;;0.10;0.10;;;;;;;13.62;86.54;96768.16;5075261;28;20407;-69
2023/08/29 01:51:15;;;;;;;0.10;0.10;;;;;;;13.53;86.62;96767.72;5070884;28;20062;-68
2023/08/29 01:53:44;;;;;;;0.25;0.25;;;;;;;13.46;87.26;96771.56;5067493;28;20137;-71
2023/08/29 01:56:13;;;;;;;0.22;0.22;;;;;;;13.46;87.39;96771.56;5083815;28;20037;-69
2023/08/29 01:58:42;;;;;;;0.30;0.30;;;;;;;13.44;87.31;96765.63;5060371;28;20049;-69
2023/08/29 02:01:11;;;;;;;0.05;0.05;;;;;;;13.49;87.25;96774.59;5048639;28;20127;-69
2023/08/29 02:03:50;;;;;;;0.10;0.10;;;;;;;13.52;87.25;96776.81;5068645;28;20115;-69
2023/08/29 02:06:19;;;;;;;0.20;0.20;;;;;;;13.46;87.63;96775.06;5059990;28;20448;-69
2023/08/29 02:08:47;;;;;;;0.15;0.15;;;;;;;13.48;87.06;96772.97;5058467;28;20080;-69
2023/08/29 02:11:15;;;;;;;0.10;0.10;;;;;;;13.53;87.78;96773.06;5049475;28;20076;-70
2023/08/29 02:13:42;;;;;;;0.20;0.20;;;;;;;13.60;87.39;96771.06;5071014;28;20434;-69
2023/08/29 02:16:12;;;;;;;0.20;0.20;;;;;;;13.65;87.34;96769.56;5083992;28;20043;-70
2023/08/29 02:18:40;;;;;;;0.13;0.13;;;;;;;13.66;86.74;96768.53;5062258;28;20044;-70
2023/08/29 02:21:07;;;;;;;0.25;0.25;;;;;;;13.66;86.88;96769.34;5086856;28;20044;-70
2023/08/29 02:23:35;;;;;;;0.10;0.10;;;;;;;13.64;86.64;96766.06;5075626;28;20032;-69
2023/08/29 02:26:05;;;;;;;0.30;0.30;;;;;;;13.68;86.75;96756.53;5060054;28;20042;-71
2023/08/29 02:28:34;;;;;;;0.20;0.20;;;;;;;13.58;87.43;96748.25;5081600;28;20040;-70
2023/08/29 02:31:05;;;;;;;0.13;0.13;;;;;;;13.64;86.72;96749.97;5076470;28;20048;-69
2023/08/29 02:33:35;;;;;;;0.30;0.30;;;;;;;13.68;86.74;96751.16;5076933;28;20387;-69
2023/08/29 02:36:04;;;;;;;0.30;0.30;;;;;;;13.65;86.68;96737.41;5059584;28;20735;-70
2023/08/29 02:38:32;;;;;;;0.22;0.22;;;;;;;13.66;86.78;96717.56;5080882;28;20137;-70
2023/08/29 02:40:59;;;;;;;0.43;0.43;;;;;;;13.64;86.67;96709.75;5058024;28;20129;-69
2023/08/29 02:43:27;;;;;;;0.20;0.20;;;;;;;13.53;87.04;96708.72;5080303;28;20494;-69
2023/08/29 02:45:55;;;;;;;0.13;0.13;;;;;;;13.54;86.92;96702.31;5085565;28;20111;-70
2023/08/29 02:48:23;;;;;;;0.17;0.17;;;;;;;13.52;87.02;96698.22;5078938;28;20055;-70
2023/08/29 02:50:52;;;;;;;0.20;0.20;;;;;;;13.55;86.91;96708.50;5075135;28;20036;-69
2023/08/29 02:53:21;;;;;;;0.20;0.20;;;;;;;13.56;87.13;96707.44;5077102;28;20521;-69
2023/08/29 02:55:50;;;;;;;0.17;0.17;;;;;;;13.45;87.30;96709.09;5053220;28;20055;-69
2023/08/29 02:58:18;;;;;;;0.20;0.20;;;;;;;13.45;87.48;96713.63;5059070;28;20479;-70
2023/08/29 03:00:47;;;;;;;0.13;0.13;;;;;;;13.47;87.40;96715.03;5083470;28;20040;-70
2023/08/29 03:03:17;;;;;;;0.13;0.13;;;;;;;13.47;87.33;96712.34;5062768;28;20048;-70
2023/08/29 03:05:55;;;;;;;0.22;0.22;;;;;;;13.48;87.48;96719.34;5060535;28;20044;-69
2023/08/29 03:08:22;;;;;;;0.22;0.22;;;;;;;13.47;87.24;96706.19;5078763;28;20852;-69
2023/08/29 03:10:51;;;;;;;0.30;0.30;;;;;;;13.51;86.96;96715.38;5083571;28;20040;-69
2023/08/29 03:13:19;;;;;;;0.22;0.22;;;;;;;13.46;87.21;96713.41;5082442;28;20462;-69
2023/08/29 03:15:48;;;;;;;0.13;0.13;;;;;;;13.47;87.17;96712.34;5060371;28;20050;-69
2023/08/29 03:18:17;;;;;;;0.13;0.13;;;;;;;13.42;86.98;96709.56;5084485;28;20036;-68
2023/08/29 03:20:45;;;;;;;0.22;0.22;;;;;;;13.45;86.93;96714.44;5059981;28;20049;-69
2023/08/29 03:23:14;;;;;;;0.13;0.13;;;;;;;13.34;87.28;96712.59;5077578;28;20098;-70
2023/08/29 03:25:42;;;;;;;0.20;0.20;;;;;;;13.38;87.35;96707.59;5084593;28;20028;-69
2023/08/29 03:28:09;;;;;;;0.13;0.13;;;;;;;13.34;87.91;96723.31;5064194;28;20052;-69
2023/08/29 03:30:37;;;;;;;0.20;0.20;;;;;;;13.38;87.55;96712.94;5065407;28;20164;-70
2023/08/29 03:33:05;;;;;;;0.20;0.20;;;;;;;13.37;87.65;96717.50;5066579;28;20048;-69
2023/08/29 03:35:33;;;;;;;0.22;0.22;;;;;;;13.29;87.89;96711.69;5066643;28;20036;-71
2023/08/29 03:38:01;;;;;;;0.25;0.25;;;;;;;13.31;88.11;96713.06;5058667;28;20131;-71
2023/08/29 03:40:31;;;;;;;0.15;0.15;;;;;;;13.38;87.90;96704.91;5054144;28;20094;-72
2023/08/29 03:42:59;;;;;;;0.10;0.10;;;;;;;13.44;87.47;96703.97;5065588;28;20074;-70
2023/08/29 03:45:27;;;;;;;0.22;0.22;;;;;;;13.42;87.64;96703.38;5060400;28;20040;-70
2023/08/29 03:47:55;;;;;;;0.60;0.60;;;;;;;13.46;87.58;96704.53;5073373;28;20047;-70
2023/08/29 03:50:24;;;;;;;0.13;0.13;;;;;;;13.44;87.45;96704.78;5064256;28;20044;-70
2023/08/29 03:52:52;;;;;;;0.20;0.20;;;;;;;13.35;87.44;96710.72;5070512;28;20041;-70
2023/08/29 03:55:22;;;;;;;0.20;0.20;;;;;;;13.37;87.54;96704.09;5082266;28;20058;-70
2023/08/29 03:57:51;;;;;;;0.15;0.15;;;;;;;13.37;87.67;96712.13;5080338;28;20069;-71
2023/08/29 04:00:20;;;;;;;0.20;0.20;;;;;;;13.39;87.76;96699.28;5067428;28;20062;-70
2023/08/29 04:02:47;;;;;;;0.25;0.25;;;;;;;13.37;87.95;96706.78;5070674;28;20044;-70
2023/08/29 04:05:17;;;;;;;0.20;0.20;;;;;;;13.40;87.77;96705.47;5047621;28;20123;-71
2023/08/29 04:07:47;;;;;;;0.15;0.15;;;;;;;13.39;87.87;96715.38;5059236;28;20059;-70
2023/08/29 04:10:15;;;;;;;0.10;0.10;;;;;;;13.35;87.89;96716.91;5056283;28;20051;-71
2023/08/29 04:12:43;;;;;;;0.22;0.22;;;;;;;13.35;88.16;96711.53;5064409;28;20040;-70
2023/08/29 04:15:12;;;;;;;0.25;0.25;;;;;;;13.22;88.67;96709.09;5058839;28;20135;-70
2023/08/29 04:17:40;;;;;;;0.13;0.13;;;;;;;13.22;88.51;96715.28;5077624;28;20051;-72
2023/08/29 04:20:12;;;;;;;0.35;0.35;;;;;;;13.25;88.63;96705.97;5057353;28;20045;-70
2023/08/29 04:22:40;;;;;;;0.13;0.13;;;;;;;13.23;88.63;96711.53;5063876;28;20138;-69
2023/08/29 04:25:08;;;;;;;0.22;0.22;;;;;;;13.25;88.92;96705.97;5076072;28;20115;-69
2023/08/29 04:27:37;;;;;;;0.13;0.13;;;;;;;13.31;88.59;96709.56;5070947;28;20384;-69
2023/08/29 04:30:06;;;;;;;0.13;0.13;;;;;;;13.20;88.70;96717.38;5069853;28;20071;-69
2023/08/29 04:32:36;;;;;;;0.17;0.17;;;;;;;13.25;88.64;96714.00;5050843;28;20044;-69
2023/08/29 04:35:05;;;;;;;0.13;0.13;;;;;;;13.27;88.33;96703.88;5083752;28;20083;-69
2023/08/29 04:37:33;;;;;;;0.15;0.15;;;;;;;13.28;88.63;96702.81;5083180;28;20044;-69
2023/08/29 04:40:02;;;;;;;0.22;0.22;;;;;;;13.33;88.20;96702.91;5081867;28;20047;-69
2023/08/29 04:42:29;;;;;;;0.13;0.13;;;;;;;13.34;88.27;96703.72;5084767;28;20530;-67
2023/08/29 04:44:57;;;;;;;0.22;0.22;;;;;;;13.35;88.23;96687.41;5068733;28;20491;-70
2023/08/29 04:47:25;;;;;;;0.10;0.10;;;;;;;13.34;88.57;96684.97;5063373;28;20033;-68
2023/08/29 04:49:55;;;;;;;0.10;0.10;;;;;;;13.35;88.13;96673.22;5066487;28;20052;-68
2023/08/29 04:52:23;;;;;;;0.25;0.25;;;;;;;13.30;88.52;96678.44;5079997;28;20040;-68
2023/08/29 04:54:51;;;;;;;0.22;0.22;;;;;;;13.34;88.60;96691.16;5085060;28;20437;-67
2023/08/29 04:57:19;;;;;;;0.28;0.28;;;;;;;13.34;88.63;96685.78;5079937;28;20039;-69
2023/08/29 04:59:46;;;;;;;0.15;0.15;;;;;;;13.32;88.90;96687.06;5085175;28;20050;-69
2023/08/29 05:02:14;;;;;;;0.35;0.35;;;;;;;13.39;88.32;96683.22;5062889;28;20075;-69
2023/08/29 05:04:42;;;;;;;0.13;0.13;;;;;;;13.34;88.70;96690.34;5061673;28;20032;-69
2023/08/29 05:07:12;;;;;;;0.10;0.10;;;;;;;13.31;88.54;96680.88;5087430;28;20056;-68
2023/08/29 05:09:39;;;;;;;0.22;0.22;;;;;;;13.32;88.81;96679.84;5080831;28;20495;-68
2023/08/29 05:12:10;;;;;;;0.22;0.22;;;;;;;13.30;89.09;96673.06;5055360;28;20054;-69
2023/08/29 05:14:39;;;;;;;0.13;0.13;;;;;;;13.31;88.92;96664.00;5054382;28;20098;-69
2023/08/29 05:17:09;;;;;;;0.15;0.15;;;;;;;13.28;88.88;96659.94;5068333;28;20052;-69
2023/08/29 05:19:37;;;;;;;0.30;0.30;;;;;;;13.32;88.49;96670.97;5061676;28;20538;-67
2023/08/29 05:22:04;;;;;;;0.22;0.22;;;;;;;13.29;88.73;96674.16;5061800;28;20080;-68
2023/08/29 05:24:34;;;;;;;0.10;0.10;;;;;;;13.29;89.12;96674.16;5066050;28;20482;-69
2023/08/29 05:27:02;;;;;;;0.20;0.20;;;;;;;13.31;89.22;96677.38;5079759;28;20040;-69
2023/08/29 05:29:29;;;;;;;0.13;0.13;;;;;;;13.25;89.11;96673.81;5085402;28;20040;-68
2023/08/29 05:31:57;;;;;;;0.17;0.17;;;;;;;13.37;88.91;96679.97;5078502;28;20043;-69
2023/08/29 05:34:24;;;;;;;0.13;0.13;;;;;;;13.37;88.80;96673.78;5068140;28;20479;-69
2023/08/29 05:36:52;;;;;;;0.10;0.10;;;;;;;13.40;88.96;96681.34;5077452;28;20051;-69
2023/08/29 05:39:20;;;;;;;0.13;0.13;;;;;;;13.45;88.76;96678.78;5081621;28;20044;-69
2023/08/29 05:41:50;;;;;;;0.20;0.20;;;;;;;13.44;88.70;96680.66;5079260;28;20048;-69
2023/08/29 05:44:18;;;;;;;0.22;0.22;;;;;;;13.45;88.83;96684.97;5087097;28;20518;-69
2023/08/29 05:46:45;;;;;;;0.13;0.13;;;;;;;13.39;89.29;96685.09;5091694;28;20049;-70
2023/08/29 05:49:13;;;;;;;0.17;0.17;;;;;;;13.40;89.00;96687.53;5083794;28;20044;-67
2023/08/29 05:51:41;;;;;;;0.20;0.20;;;;;;;13.44;88.63;96694.06;5085529;28;20068;-69
2023/08/29 05:54:09;;;;;;;0.22;0.22;;;;;;;13.41;88.84;96697.19;5084228;28;20496;-69
2023/08/29 05:56:37;;;;;;;0.20;0.20;;;;;;;13.41;88.97;96697.19;5085798;28;20052;-67
2023/08/29 05:59:07;;;;;;;0.10;0.10;;;;;;;13.29;89.23;96699.06;5084605;28;20043;-67
2023/08/29 06:01:35;;;;;;;0.20;0.20;;;;;;;13.32;89.54;96700.47;5085712;28;20040;-69
2023/08/29 06:04:04;;;;;;;0.13;0.13;;;;;;;13.43;88.99;96702.31;5084703;28;20052;-67
2023/08/29 06:06:32;;;;;;;0.32;0.32;;;;;;;13.47;88.90;96695.47;5084729;28;20036;-67
2023/08/29 06:09:00;;;;;;;0.40;0.40;;;;;;;13.48;88.80;96692.53;5085178;28;20127;-67
2023/08/29 06:11:29;;;;;;;0.30;0.30;;;;;;;13.48;88.71;96703.28;5084564;28;20043;-68
2023/08/29 06:13:57;;;;;;;0.13;0.13;;;;;;;13.50;88.61;96714.53;5085040;28;20562;-67
2023/08/29 06:16:26;;;;;;;0.68;0.68;;;;;;;13.56;88.53;96712.81;5081954;28;20032;-70
2023/08/29 06:18:53;;;;;;;0.13;0.13;;;;;;;13.47;88.63;96712.34;5085404;28;20067;-67
2023/08/29 06:21:21;;;;;;;0.13;0.13;;;;;;;13.47;88.64;96714.22;5081380;28;20062;-68
2023/08/29 06:23:49;;;;;;;0.13;0.13;;;;;;;13.51;88.72;96712.69;5086869;28;20048;-68
2023/08/29 06:26:17;;;;;;;0.22;0.22;;;;;;;13.54;88.45;96706.88;5083227;28;20047;-68
2023/08/29 06:28:45;;;;;;;0.22;0.22;;;;;;;13.56;88.38;96713.63;5087549;28;20058;-68
2023/08/29 06:31:12;;;;;;;0.60;0.60;;;;;;;13.58;88.35;96716.06;5084038;28;20058;-68
2023/08/29 06:33:41;;;;;;;0.13;0.13;;;;;;;13.55;88.46;96719.22;5081302;28;20036;-67
2023/08/29 06:36:09;;;;;;;0.13;0.13;;;;;;;13.56;88.50;96726.22;5084009;28;20132;-67
2023/08/29 06:38:39;;;;;;;0.10;0.10;;;;;;;13.54;88.52;96729.13;5083968;28;20115;-69
2023/08/29 06:41:06;;;;;;;0.15;0.15;;;;;;;13.60;89.08;96717.44;5086141;28;20101;-67
2023/08/29 06:43:34;;;;;;;0.25;0.25;;;;;;;13.66;88.91;96728.31;5081257;28;20041;-68
2023/08/29 06:46:02;;;;;;;0.22;0.22;;;;;;;13.74;88.45;96731.44;5078451;28;20044;-68
2023/08/29 06:48:30;;;;;;;0.22;0.22;;;;;;;13.74;88.08;96718.03;5084635;28;20147;-68
2023/08/29 06:50:59;;;;;;;0.22;0.22;;;;;;;13.67;88.08;96721.88;5082182;28;20477;-67
2023/08/29 06:53:26;;;;;;;0.30;0.30;;;;;;;13.57;88.67;96722.50;5069891;28;20040;-67
2023/08/29 06:55:54;;;;;;;0.03;0.03;;;;;;;13.57;88.75;96720.63;5081847;28;20404;-67
2023/08/29 06:58:22;;;;;;;0.22;0.22;;;;;;;13.64;88.83;96727.72;5084171;28;20036;-67
2023/08/29 07:00:50;;;;;;;0.10;0.10;;;;;;;13.59;88.79;96720.41;5085201;28;20072;-67
2023/08/29 07:03:17;;;;;;;0.13;0.13;;;;;;;13.65;88.70;96730.16;5083617;28;20427;-68
2023/08/29 07:05:45;;;;;;;0.22;0.22;;;;;;;13.66;88.58;96734.47;5083984;28;20036;-68
2023/08/29 07:08:14;;;;;;;0.13;0.13;;;;;;;13.71;88.92;96729.22;5082889;28;20044;-70
2023/08/29 07:10:43;;;;;;;0.25;0.25;;;;;;;13.74;88.65;96731.44;5085599;28;20051;-68
2023/08/29 07:13:11;;;;;;;0.20;0.20;;;;;;;13.79;88.65;96726.19;5086241;28;20049;-67
2023/08/29 07:15:38;;;;;;;0.13;0.13;;;;;;;13.80;88.32;96721.66;5087227;28;20094;-68
2023/08/29 07:18:06;;;;;;;0.20;0.20;;;;;;;13.83;88.55;96729.19;5084142;28;20044;-68
2023/08/29 07:20:34;;;;;;;0.10;0.10;;;;;;;13.78;88.41;96729.09;5080697;28;20078;-70
2023/08/29 07:23:02;;;;;;;0.30;0.30;;;;;;;13.79;88.45;96728.06;5072417;28;20055;-70
2023/08/29 07:25:41;;;;;;;0.13;0.13;;;;;;;13.80;88.27;96732.38;5083527;28;20039;-67
2023/08/29 07:28:09;;;;;;;0.30;0.30;;;;;;;13.83;88.17;96731.88;5080655;28;20132;-67
2023/08/29 07:30:42;;;;;;;0.20;0.20;;;;;;;13.85;88.36;96743.19;5086745;28;20101;-67
2023/08/29 07:33:11;;;;;;;0.20;0.20;;;;;;;13.87;88.22;96738.41;5085857;28;20048;-67
2023/08/29 07:35:39;;;;;;;0.20;0.20;;;;;;;13.89;88.62;96737.13;5084402;28;20044;-67
2023/08/29 07:38:07;;;;;;;0.20;0.20;;;;;;;13.96;88.27;96742.34;5085000;28;20048;-66
2023/08/29 07:40:35;;;;;;;0.20;0.20;;;;;;;13.87;87.98;96741.91;5083493;28;20411;-68
2023/08/29 07:43:05;;;;;;;0.15;0.15;;;;;;;13.85;88.15;96754.75;5083044;28;20085;-67
2023/08/29 07:45:34;;;;;;;0.15;0.15;;;;;;;13.86;88.28;96756.38;5080390;28;20530;-68
2023/08/29 07:48:02;;;;;;;0.10;0.10;;;;;;;13.88;88.97;96756.13;5079963;28;20127;-68
2023/08/29 07:50:30;;;;;;;0.30;0.30;;;;;;;13.83;88.41;96756.84;5085168;28;20499;-67
2023/08/29 07:52:58;;;;;;;0.20;0.20;;;;;;;13.88;88.51;96766.88;5080007;28;20054;-67
2023/08/29 07:55:26;;;;;;;0.20;0.20;;;;;;;13.87;88.48;96758.00;5080269;28;20098;-67
2023/08/29 07:57:54;;;;;;;0.13;0.13;;;;;;;13.85;88.39;96760.09;5080487;28;20059;-67
2023/08/29 08:00:23;;;;;;;0.35;0.35;;;;;;;13.84;88.56;96749.59;5087625;28;20040;-67
2023/08/29 08:02:50;;;;;;;0.30;0.30;;;;;;;13.89;88.58;96742.50;5079809;28;20059;-67
2023/08/29 08:05:18;;;;;;;0.10;0.10;;;;;;;13.99;88.68;96752.63;5082389;28;20557;-70
2023/08/29 08:07:46;;;;;;;0.35;0.35;;;;;;;14.04;88.13;96743.84;5081944;28;20040;-67
2023/08/29 08:10:15;;;;;;;0.20;0.20;;;;;;;14.11;88.07;96740.00;5081858;28;20119;-68
2023/08/29 08:12:44;;;;;;;0.15;0.15;;;;;;;14.16;88.09;96742.75;5084775;28;20513;-67
2023/08/29 08:15:12;;;;;;;0.20;0.20;;;;;;;14.15;87.87;96743.00;5082051;28;20045;-67
2023/08/29 08:17:41;;;;;;;0.10;0.10;;;;;;;14.18;87.31;96729.13;5085300;28;20036;-67
2023/08/29 08:20:10;;;;;;;0.00;0.00;;;;;;;14.24;87.19;96734.34;5080772;28;20054;-67
2023/08/29 08:22:38;;;;;;;0.20;0.20;;;;;;;14.18;87.12;96729.94;5083566;28;20032;-67
2023/08/29 08:25:07;;;;;;;0.13;0.13;;;;;;;14.23;86.75;96735.38;5081312;28;20036;-67
2023/08/29 08:27:36;;;;;;;0.20;0.20;;;;;;;14.24;86.99;96737.00;5083609;28;20044;-67
2023/08/29 08:30:05;;;;;;;0.13;0.13;;;;;;;14.34;87.42;96739.91;5080905;28;20044;-67
2023/08/29 08:32:33;;;;;;;0.20;0.20;;;;;;;14.40;87.30;96740.03;5081551;28;20044;-68
2023/08/29 08:35:04;;;;;;;0.10;0.10;;;;;;;14.43;87.16;96736.88;5075095;28;20033;-67
2023/08/29 08:37:33;;;;;;;0.20;0.20;;;;;;;14.46;86.80;96736.38;5063808;28;20515;-68
2023/08/29 08:40:01;;;;;;;0.10;0.10;;;;;;;14.50;86.33;96741.03;5074829;28;20463;-68
2023/08/29 08:42:33;;;;;;;0.13;0.13;;;;;;;14.49;86.50;96736.72;5073991;28;20047;-67
2023/08/29 08:45:01;;;;;;;0.22;0.22;;;;;;;14.48;85.71;96743.16;5066342;28;20686;-67
2023/08/29 08:47:29;;;;;;;0.13;0.13;;;;;;;14.41;86.22;96742.50;5082139;28;20119;-67
2023/08/29 08:49:57;;;;;;;0.13;0.13;;;;;;;14.41;86.88;96741.66;5085082;28;20040;-67
2023/08/29 08:52:26;;;;;;;0.20;0.20;;;;;;;14.37;86.64;96754.72;5076144;28;20037;-68
2023/08/29 08:54:54;;;;;;;0.20;0.20;;;;;;;14.25;86.44;96752.06;5085838;28;20046;-67
2023/08/29 08:57:22;;;;;;;0.10;0.10;;;;;;;14.25;87.14;96752.06;5079753;28;20047;-67
2023/08/29 08:59:49;;;;;;;0.20;0.20;;;;;;;14.26;86.99;96759.06;5084881;28;20128;-68
2023/08/29 09:02:18;;;;;;;0.10;0.10;;;;;;;14.11;87.26;96764.16;5080610;28;20048;-67
2023/08/29 09:04:46;;;;;;;0.15;0.15;;;;;;;14.16;87.68;96771.47;5074122;28;20090;-67
2023/08/29 09:07:14;;;;;;;0.10;0.10;;;;;;;14.15;87.61;96770.66;5085656;28;20044;-67
2023/08/29 09:09:43;;;;;;;0.10;0.10;;;;;;;14.17;87.45;96765.88;5079219;28;20037;-67
2023/08/29 09:12:10;;;;;;;0.20;0.20;;;;;;;14.17;87.71;96779.28;5086319;28;20517;-67
2023/08/29 09:14:42;;;;;;;0.20;0.20;;;;;;;14.14;87.88;96776.25;5079345;28;20045;-67
2023/08/29 09:17:10;;;;;;;0.13;0.13;;;;;;;14.15;87.94;96772.53;5071457;28;20068;-67
2023/08/29 09:19:38;;;;;;;0.20;0.20;;;;;;;14.13;88.63;96777.31;5074899;28;20054;-68
2023/08/29 09:22:06;;;;;;;0.22;0.22;;;;;;;14.15;88.63;96778.72;5083631;28;20041;-67
2023/08/29 09:24:34;;;;;;;0.20;0.20;;;;;;;14.17;88.52;96779.28;5087808;28;20115;-67
2023/08/29 09:27:06;;;;;;;0.20;0.20;;;;;;;14.20;88.45;96773.47;5074316;28;20468;-68
2023/08/29 09:29:34;;;;;;;0.22;0.22;;;;;;;14.20;88.95;96776.13;5073873;28;20064;-67
2023/08/29 09:32:12;;;;;;;0.15;0.15;;;;;;;14.21;88.77;96783.13;5070900;28;20139;-67
2023/08/29 09:34:39;;;;;;;0.13;0.13;;;;;;;14.25;88.88;96778.91;5069902;28;20427;-67
2023/08/29 09:37:07;;;;;;;0.20;0.20;;;;;;;14.25;88.46;96778.91;5075287;28;20536;-67
2023/08/29 09:39:35;;;;;;;0.20;0.20;;;;;;;14.29;89.02;96782.75;5085621;28;20058;-68
2023/08/29 09:42:06;;;;;;;0.17;0.17;;;;;;;14.25;89.19;96788.84;5078911;28;20063;-67
2023/08/29 09:44:36;;;;;;;0.30;0.30;;;;;;;14.29;88.94;96784.63;5086311;28;20518;-67
2023/08/29 09:47:04;;;;;;;0.13;0.13;;;;;;;14.26;88.53;96782.41;5066470;28;20131;-67
2023/08/29 09:49:42;;;;;;;0.15;0.15;;;;;;;14.29;88.96;96784.63;5072511;28;20072;-67
2023/08/29 09:52:10;;;;;;;0.10;0.10;;;;;;;14.33;89.23;96780.41;5085511;28;20048;-67
2023/08/29 09:54:44;;;;;;;0.20;0.20;;;;;;;14.25;88.26;96778.09;5080104;28;20116;-67
2023/08/29 09:57:15;;;;;;;0.03;0.03;;;;;;;14.31;88.67;96779.84;5085608;28;20130;-67
2023/08/29 09:59:44;;;;;;;0.13;0.13;;;;;;;14.29;88.89;96781.94;5064104;28;20479;-68
2023/08/29 10:02:13;;;;;;;0.20;0.20;;;;;;;14.31;89.12;96788.72;5082981;28;20032;-67
2023/08/29 10:04:44;;;;;;;0.22;0.22;;;;;;;14.28;88.52;96786.50;5082085;28;20119;-67
2023/08/29 10:07:13;;;;;;;0.20;0.20;;;;;;;14.22;88.25;96790.13;5087392;28;20051;-68
2023/08/29 10:09:42;;;;;;;0.25;0.25;;;;;;;14.23;87.64;96781.00;5077195;28;20109;-68
2023/08/29 10:12:10;;;;;;;0.22;0.22;;;;;;;14.26;86.86;96780.53;5075424;28;20055;-68
2023/08/29 10:14:39;;;;;;;0.13;0.13;;;;;;;14.33;86.41;96800.00;5084728;28;20063;-68
2023/08/29 10:17:07;;;;;;;0.10;0.10;;;;;;;14.31;85.94;96804.81;5089907;28;20086;-67
2023/08/29 10:19:48;;;;;;;0.17;0.17;;;;;;;14.38;86.75;96798.50;5078231;28;20106;-67
2023/08/29 10:22:18;;;;;;;0.20;0.20;;;;;;;14.50;86.57;96810.03;5066179;28;20048;-68
2023/08/29 10:24:46;;;;;;;0.13;0.13;;;;;;;14.55;86.27;96802.88;5076207;28;20078;-67
2023/08/29 10:27:13;;;;;;;0.20;0.20;;;;;;;14.57;86.25;96800.78;5060146;28;20045;-67
2023/08/29 10:29:42;;;;;;;0.20;0.20;;;;;;;14.60;86.32;96796.81;5078279;28;20115;-68
2023/08/29 10:32:10;;;;;;;0.20;0.20;;;;;;;14.55;86.87;96794.00;5081793;28;20127;-68
2023/08/29 10:34:37;;;;;;;0.10;0.10;;;;;;;14.59;87.16;96797.88;5081069;28;20050;-68
2023/08/29 10:37:06;;;;;;;0.15;0.15;;;;;;;14.64;86.97;96808.69;5083090;28;20044;-67
2023/08/29 10:39:33;;;;;;;0.25;0.25;;;;;;;14.64;86.61;96808.69;5085091;28;20047;-67
2023/08/29 10:42:01;;;;;;;0.30;0.30;;;;;;;14.71;86.99;96797.81;5082192;28;20052;-68
2023/08/29 10:44:39;;;;;;;0.10;0.10;;;;;;;14.76;86.17;96806.78;5081146;28;20040;-68
2023/08/29 10:47:19;;;;;;;0.13;0.13;;;;;;;14.76;86.02;96814.84;5073530;28;20098;-67
2023/08/29 10:49:48;;;;;;;0.05;0.05;;;;;;;14.81;85.95;96814.94;5086811;28;20047;-68
2023/08/29 10:52:18;;;;;;;0.40;0.40;;;;;;;14.87;85.83;96813.16;5083479;28;20054;-67
2023/08/29 10:54:46;;;;;;;0.20;0.20;;;;;;;14.89;85.74;96811.88;5086994;28;20051;-67
2023/08/29 10:57:28;;;;;;;0.50;0.50;;;;;;;14.92;85.31;96806.03;5082502;28;20105;-67
2023/08/29 10:59:56;;;;;;;0.13;0.13;;;;;;;14.88;84.56;96804.03;5087598;28;20075;-67
2023/08/29 11:02:27;;;;;;;0.22;0.22;;;;;;;14.89;84.95;96798.44;5080303;28;20040;-68
2023/08/29 11:05:12;;;;;;;0.35;0.35;;;;;;;14.88;85.02;96790.59;5080810;28;20080;-68
2023/08/29 11:07:40;;;;;;;;;;;;;;;14.84;85.26;96795.66;5077378;28;20178;-68
2023/08/29 11:10:14;;;;;;;0.10;0.10;;;;;;;14.79;85.63;96797.44;5081544;28;20256;-68
2023/08/29 11:13:06;;;;;;;0.20;0.20;;;;;;;14.80;85.59;96791.81;5085193;28;20143;-68
2023/08/29 11:16:06;;;;;;;0.22;0.22;;;;;;;14.94;85.65;96786.97;5072430;28;20044;-68
2023/08/29 11:18:35;;;;;;;0.30;0.30;;;;;;;14.99;84.99;96790.53;5075279;28;20047;-68
2023/08/29 11:21:07;;;;;;;0.20;0.20;;;;;;;15.05;84.71;96786.88;5083336;28;20036;-67
2023/08/29 11:23:39;;;;;;;0.15;0.15;;;;;;;15.07;84.51;96787.44;5083371;28;20127;-67
2023/08/29 11:26:08;;;;;;;0.22;0.22;;;;;;;15.11;84.48;96778.91;5082837;28;20063;-69
2023/08/29 11:28:40;;;;;;;0.20;0.20;;;;;;;15.16;84.36;96777.09;5084407;28;20728;-67
2023/08/29 11:31:07;;;;;;;0.20;0.20;;;;;;;15.17;83.01;96777.94;5082871;28;20055;-68
2023/08/29 11:33:37;;;;;;;0.10;0.10;;;;;;;15.10;82.62;96777.28;5084902;28;20407;-68
2023/08/29 11:36:06;;;;;;;0.28;0.28;;;;;;;15.10;83.66;96770.03;5083212;28;20044;-68
2023/08/29 11:38:34;;;;;;;0.10;0.10;;;;;;;15.06;83.35;96774.25;5079846;28;20455;-68
2023/08/29 11:41:04;;;;;;;0.13;0.13;;;;;;;15.10;82.80;96786.16;5085928;28;20048;-68
2023/08/29 11:43:49;;;;;;;0.22;0.22;;;;;;;15.17;82.90;96789.50;5080228;28;20404;-68